Flight Track Log - Related Links

Times and Time Zones

All times are in EDT time to prevent confusion due to time zone crossing. See the CTL61 flight status page for this flight to view local times or setup timezone preferences in your user account.

Time Position Orientation Groundspeed Altitude Reporting Facility
EDT Latitude Longitude Course Direction KTS MPH feet Rate Location/Type
Fri 10:41:17 PM 37.3347 -81.2408 326° Northwest 103 119 5,600  Level Indianapolis Center
Fri 10:42:18 PM 37.3628 -81.2578 334° Northwest 109 125 5,900 197 Climbing Indianapolis Center
Fri 10:43:19 PM 37.4008 -81.2717 344° North 131 151 6,000  Climbing Indianapolis Center
Fri 10:44:20 PM 37.4422 -81.2867 344° North 149 171 5,900 -49 Descending Indianapolis Center
Fri 10:45:21 PM 37.4822 -81.2983 347° North 150 173 5,900  Level Indianapolis Center
Fri 10:46:22 PM 37.5300 -81.3122 347° North 151 174 5,900 49 Level Indianapolis Center
Fri 10:47:23 PM 37.5694 -81.3231 348° North 149 171 6,000 50 Climbing Indianapolis Center
Fri 10:48:23 PM 37.6103 -81.3344 348° North 154 177 6,000 -50 Level Indianapolis Center
Fri 10:49:24 PM 37.6508 -81.3469 346° North 155 178 5,900 -49 Descending Indianapolis Center
Fri 10:50:25 PM 37.6875 -81.3578 347° North 145 167 5,900  Level Indianapolis Center
Fri 10:51:26 PM 37.7381 -81.3719 348° North 152 175 5,900 -49 Level Indianapolis Center
Fri 10:52:27 PM 37.7794 -81.3836 347° North 155 178 5,800 -344 Descending Indianapolis Center
Fri 10:53:28 PM 37.8294 -81.3994 346° North 170 196 5,200 -443 Descending Indianapolis Center
Fri 10:54:29 PM 37.8728 -81.4136 346° North 164 189 4,900 -148 Descending Indianapolis Center
Fri 10:55:30 PM 37.9114 -81.4292 342° North 151 174 4,900 49 Level Indianapolis Center
Fri 10:56:31 PM 37.9522 -81.4411 347° North 150 173 5,000 49 Climbing Indianapolis Center
Fri 10:57:32 PM 37.9953 -81.4544 346° North 156 180 5,000 -98 Level Indianapolis Center
Fri 10:58:33 PM 38.0361 -81.4667 347° North 153 176 4,800 -197 Descending Indianapolis Center
Fri 10:59:34 PM 38.0786 -81.4808 345° North 155 178 4,600 -98 Descending Indianapolis Center
Fri 11:00:35 PM 38.1217 -81.4917 349° North 157 181 4,600 -197 Level Indianapolis Center
Fri 11:01:36 PM 38.1650 -81.5053 346° North 159 183 4,200 -295 Descending Indianapolis Center
Fri 11:02:37 PM 38.2111 -81.5111 354° North 164 189 4,000 -393 Descending Indianapolis Center
Fri 11:03:38 PM 38.2550 -81.5197 351° North 161 185 3,400 -585 Descending Indianapolis Center
Fri 11:04:40 PM 38.2958 -81.5339 345° North 156 180 2,800 -634 Descending Indianapolis Center
Fri 11:05:41 PM 38.3328 -81.5447 347° North 145 167 2,100 -590 Descending Indianapolis Center
Fri 11:06:42 PM 38.3642 -81.5533 348° North 131 151 1,600 -393 Descending Indianapolis Center
Fri 11:07:43 PM 38.3883 -81.5675 335° Northwest 113 130 1,300 -295 Descending Indianapolis Center
Fri 11:09:00 PM 38.3667 -81.5833 North  Level FlightAware Approximate

Login

Don't have an account? Register now (free) for customized features, flight alerts, and more!